createdAt,value
2017-11-06T00:00:28.348Z,1007.21
2017-11-06T00:01:40.648Z,1007.22
2017-11-06T00:02:52.922Z,1007.19
2017-11-06T00:04:05.522Z,1007.23
2017-11-06T00:05:17.809Z,1007.32
2017-11-06T00:06:30.105Z,1007.27
2017-11-06T00:07:42.059Z,1007.24
2017-11-06T00:08:54.650Z,1007.26
2017-11-06T00:10:06.617Z,1007.24
2017-11-06T00:11:18.921Z,1007.25
2017-11-06T00:12:31.537Z,1007.3
2017-11-06T00:13:44.175Z,1007.32
2017-11-06T00:14:56.133Z,1007.32
2017-11-06T00:16:08.754Z,1007.36
2017-11-06T00:17:21.377Z,1007.43
2017-11-06T00:18:33.971Z,1007.47
2017-11-06T00:19:46.561Z,1007.51
2017-11-06T00:20:58.852Z,1007.54
2017-11-06T00:22:11.158Z,1007.58
2017-11-06T00:23:23.431Z,1007.57
2017-11-06T00:24:35.076Z,1007.6
2017-11-06T00:25:47.713Z,1007.66
2017-11-06T00:26:59.991Z,1007.62
2017-11-06T00:28:12.599Z,1007.67
2017-11-06T00:29:24.898Z,1007.67
2017-11-06T00:30:37.514Z,1007.66
2017-11-06T00:31:50.121Z,1007.66
2017-11-06T00:33:02.746Z,1007.68
2017-11-06T00:34:15.589Z,1007.65
2017-11-06T00:35:28.209Z,1007.69
2017-11-06T00:36:40.508Z,1007.69
2017-11-06T00:37:52.817Z,1007.71
2017-11-06T00:39:05.434Z,1007.75
2017-11-06T00:40:17.974Z,1007.74
2017-11-06T00:41:30.609Z,1007.78
2017-11-06T00:42:43.247Z,1007.82
2017-11-06T00:43:55.827Z,1007.86
2017-11-06T00:45:07.770Z,1007.88
2017-11-06T00:46:20.042Z,1007.84
2017-11-06T00:47:32.329Z,1007.79
2017-11-06T00:48:44.927Z,1007.82
2017-11-06T00:49:56.902Z,1007.85
2017-11-06T00:51:08.870Z,1007.91
2017-11-06T00:52:21.476Z,1007.85
2017-11-06T00:53:34.111Z,1007.92
2017-11-06T00:54:46.738Z,1007.92
2017-11-06T00:55:59.349Z,1007.91
2017-11-06T00:57:11.956Z,1007.95
2017-11-06T00:58:24.577Z,1007.94
2017-11-06T00:59:36.873Z,1008
2017-11-06T01:00:49.456Z,1007.97
2017-11-06T01:02:01.741Z,1008.02
2017-11-06T01:03:14.033Z,1008.03
2017-11-06T01:04:26.653Z,1008.05
2017-11-06T01:05:38.964Z,1008.08
2017-11-06T01:06:51.821Z,1008.03
2017-11-06T01:08:03.787Z,1008.05
2017-11-06T01:09:16.382Z,1008.03
2017-11-06T01:10:28.686Z,1008
2017-11-06T01:11:40.952Z,1007.96
2017-11-06T01:12:53.582Z,1007.94
2017-11-06T01:14:06.194Z,1007.98
2017-11-06T01:15:18.165Z,1007.9
2017-11-06T01:16:30.462Z,1007.92
2017-11-06T01:17:43.099Z,1007.95
2017-11-06T01:18:55.743Z,1007.97
2017-11-06T01:20:08.376Z,1007.9
2017-11-06T01:21:21.014Z,1007.9
2017-11-06T01:22:33.594Z,1007.92
2017-11-06T01:23:45.887Z,1007.96
2017-11-06T01:24:58.494Z,1008.02
2017-11-06T01:26:10.140Z,1008
2017-11-06T01:27:22.394Z,1008.03
2017-11-06T01:28:34.338Z,1008.04
2017-11-06T01:29:46.637Z,1008.02
2017-11-06T01:30:59.233Z,1008.03
2017-11-06T01:32:11.209Z,1008.04
2017-11-06T01:33:23.827Z,1008.06
2017-11-06T01:34:36.095Z,1008.15
2017-11-06T01:35:48.690Z,1008.13
2017-11-06T01:37:00.965Z,1008.17
2017-11-06T01:38:12.903Z,1008.19
2017-11-06T01:39:24.878Z,1008.15
2017-11-06T01:40:37.529Z,1008.21
2017-11-06T01:41:49.815Z,1008.22
2017-11-06T01:43:02.107Z,1008.28
2017-11-06T01:44:14.403Z,1008.29
2017-11-06T01:45:27.004Z,1008.32
2017-11-06T01:46:39.291Z,1008.31
2017-11-06T01:47:51.611Z,1008.3
2017-11-06T01:49:03.246Z,1008.32
2017-11-06T01:50:15.589Z,1008.25
2017-11-06T01:51:28.183Z,1008.29
2017-11-06T01:52:40.481Z,1008.29
2017-11-06T01:53:52.748Z,1008.32
2017-11-06T01:55:04.719Z,1008.3
2017-11-06T01:56:16.982Z,1008.33
2017-11-06T01:57:29.287Z,1008.3
2017-11-06T01:58:41.908Z,1008.37
2017-11-06T01:59:54.218Z,1008.37
2017-11-06T02:01:07.092Z,1008.41
2017-11-06T02:02:19.072Z,1008.35
2017-11-06T02:03:31.365Z,1008.35
2017-11-06T02:04:43.651Z,1008.36
2017-11-06T02:05:55.956Z,1008.45
2017-11-06T02:07:08.249Z,1008.47
2017-11-06T02:08:20.524Z,1008.51
2017-11-06T02:09:33.137Z,1008.49
2017-11-06T02:10:45.715Z,1008.56
2017-11-06T02:11:57.974Z,1008.53
2017-11-06T02:13:09.625Z,1008.52
2017-11-06T02:14:21.279Z,1008.48
2017-11-06T02:15:33.902Z,1008.49
2017-11-06T02:16:46.518Z,1008.52
2017-11-06T02:17:59.139Z,1008.52
2017-11-06T02:19:11.756Z,1008.54
2017-11-06T02:20:23.734Z,1008.55
2017-11-06T02:21:36.326Z,1008.5
2017-11-06T02:22:48.943Z,1008.54
2017-11-06T02:24:01.542Z,1008.57
2017-11-06T02:25:14.159Z,1008.55
2017-11-06T02:26:26.760Z,1008.54
2017-11-06T02:27:39.370Z,1008.57
2017-11-06T02:28:51.992Z,1008.58
2017-11-06T02:30:04.287Z,1008.58
2017-11-06T02:31:16.569Z,1008.61
2017-11-06T02:32:29.186Z,1008.64
2017-11-06T02:33:41.200Z,1008.66
2017-11-06T02:34:53.820Z,1008.65
2017-11-06T02:36:06.448Z,1008.71
2017-11-06T02:37:19.042Z,1008.78
2017-11-06T02:38:31.657Z,1008.85
2017-11-06T02:39:43.624Z,1008.83
2017-11-06T02:40:56.248Z,1008.9
2017-11-06T02:42:08.877Z,1008.95
2017-11-06T02:43:21.524Z,1008.92
2017-11-06T02:44:34.132Z,1008.89
2017-11-06T02:45:46.413Z,1008.9
2017-11-06T02:46:58.723Z,1008.92
2017-11-06T02:48:11.305Z,1008.9
2017-11-06T02:49:23.600Z,1008.97
2017-11-06T02:50:36.220Z,1008.98
2017-11-06T02:51:48.839Z,1009.04
2017-11-06T02:53:00.804Z,1009.07
2017-11-06T02:54:12.456Z,1009.06
2017-11-06T02:55:25.050Z,1009.1
2017-11-06T02:56:37.648Z,1009.13
2017-11-06T02:57:49.944Z,1009.14
2017-11-06T02:59:02.558Z,1009.18
2017-11-06T03:00:14.854Z,1009.14
2017-11-06T03:01:27.477Z,1009.14
2017-11-06T03:02:40.075Z,1009.21
2017-11-06T03:03:52.694Z,1009.18
2017-11-06T03:05:05.298Z,1009.21
2017-11-06T03:06:17.278Z,1009.22
2017-11-06T03:07:29.566Z,1009.2
2017-11-06T03:08:41.851Z,1009.17
2017-11-06T03:09:54.143Z,1009.16
2017-11-06T03:11:06.786Z,1009.1
2017-11-06T03:12:19.389Z,1009.09
2017-11-06T03:13:31.017Z,1009.15
2017-11-06T03:14:43.634Z,1009.14
2017-11-06T03:15:56.234Z,1009.14
2017-11-06T03:17:08.842Z,1009.23
2017-11-06T03:18:21.475Z,1009.29
2017-11-06T03:19:33.741Z,1009.33
2017-11-06T03:20:46.340Z,1009.4
2017-11-06T03:21:58.960Z,1009.4
2017-11-06T03:23:11.257Z,1009.43
2017-11-06T03:24:23.564Z,1009.55
2017-11-06T03:25:36.172Z,1009.58
2017-11-06T03:26:48.458Z,1009.6
2017-11-06T03:28:00.749Z,1009.63
2017-11-06T03:29:13.359Z,1009.66
2017-11-06T03:30:25.952Z,1009.64
2017-11-06T03:31:37.898Z,1009.67
2017-11-06T03:32:49.890Z,1009.69
2017-11-06T03:34:02.513Z,1009.65
2017-11-06T03:35:14.503Z,1009.66
2017-11-06T03:36:26.802Z,1009.66
2017-11-06T03:37:39.423Z,1009.67
2017-11-06T03:38:52.018Z,1009.67
2017-11-06T03:40:04.610Z,1009.71
2017-11-06T03:41:17.226Z,1009.74
2017-11-06T03:42:29.806Z,1009.78
2017-11-06T03:43:42.071Z,1009.79
2017-11-06T03:44:54.693Z,1009.82
2017-11-06T03:46:07.315Z,1009.84
2017-11-06T03:47:19.938Z,1009.85
2017-11-06T03:48:31.900Z,1009.82
2017-11-06T03:49:44.775Z,1009.87
2017-11-06T03:50:57.386Z,1009.85
2017-11-06T03:52:10.012Z,1009.84
2017-11-06T03:53:21.969Z,1009.84
2017-11-06T03:54:33.920Z,1009.87
2017-11-06T03:55:46.579Z,1009.9
2017-11-06T03:56:59.184Z,1009.9
2017-11-06T03:58:11.473Z,1009.96
2017-11-06T03:59:24.090Z,1010
2017-11-06T04:00:36.991Z,1009.98
2017-11-06T04:01:49.587Z,1010.03
2017-11-06T04:03:02.188Z,1010.04
2017-11-06T04:04:14.805Z,1010.07
2017-11-06T04:05:27.443Z,1010.12
2017-11-06T04:06:40.042Z,1010.1
2017-11-06T04:07:52.293Z,1010.11
2017-11-06T04:09:04.277Z,1010.11
2017-11-06T04:10:16.561Z,1010.13
2017-11-06T04:11:29.208Z,1010.17
2017-11-06T04:12:41.798Z,1010.18
2017-11-06T04:13:54.083Z,1010.16
2017-11-06T04:15:06.344Z,1010.22
2017-11-06T04:16:18.004Z,1010.25
2017-11-06T04:17:30.313Z,1010.3
2017-11-06T04:18:42.904Z,1010.35
2017-11-06T04:19:55.494Z,1010.37
2017-11-06T04:21:08.094Z,1010.45
2017-11-06T04:22:20.407Z,1010.44
2017-11-06T04:23:32.681Z,1010.47
2017-11-06T04:24:45.281Z,1010.43
2017-11-06T04:25:57.901Z,1010.46
2017-11-06T04:27:10.540Z,1010.46
2017-11-06T04:28:22.818Z,1010.46
2017-11-06T04:29:35.419Z,1010.45
2017-11-06T04:30:48.009Z,1010.45
2017-11-06T04:32:00.276Z,1010.5
2017-11-06T04:33:12.913Z,1010.52
2017-11-06T04:34:25.542Z,1010.48
2017-11-06T04:35:37.830Z,1010.5
2017-11-06T04:36:50.128Z,1010.51
2017-11-06T04:38:02.426Z,1010.55
2017-11-06T04:39:14.728Z,1010.56
2017-11-06T04:40:27.000Z,1010.57
2017-11-06T04:41:39.633Z,1010.58
2017-11-06T04:42:52.216Z,1010.6
2017-11-06T04:44:05.137Z,1010.64
2017-11-06T04:45:17.104Z,1010.65
2017-11-06T04:46:29.420Z,1010.65
2017-11-06T04:47:42.023Z,1010.69
2017-11-06T04:48:54.633Z,1010.66
2017-11-06T04:50:06.917Z,1010.7
2017-11-06T04:51:19.535Z,1010.72
2017-11-06T04:52:31.180Z,1010.75
2017-11-06T04:53:43.475Z,1010.69
2017-11-06T04:54:56.095Z,1010.73
2017-11-06T04:56:08.393Z,1010.75
2017-11-06T04:57:20.676Z,1010.74
2017-11-06T04:58:32.980Z,1010.75
2017-11-06T04:59:45.582Z,1010.75
2017-11-06T05:00:57.872Z,1010.74
2017-11-06T05:02:10.146Z,1010.78
2017-11-06T05:03:22.738Z,1010.76
2017-11-06T05:04:35.334Z,1010.78
2017-11-06T05:05:47.864Z,1010.77
2017-11-06T05:07:00.495Z,1010.78
2017-11-06T05:08:13.167Z,1010.85
2017-11-06T05:09:25.445Z,1010.81
2017-11-06T05:10:37.740Z,1010.84
2017-11-06T05:11:50.339Z,1010.86
2017-11-06T05:13:02.621Z,1010.9
2017-11-06T05:14:14.923Z,1010.89
2017-11-06T05:15:27.524Z,1010.93
2017-11-06T05:16:40.170Z,1010.96
2017-11-06T05:17:52.461Z,1010.94
2017-11-06T05:19:04.734Z,1010.97
2017-11-06T05:20:17.022Z,1010.99
2017-11-06T05:21:29.344Z,1011.04
2017-11-06T05:22:41.647Z,1011.02
2017-11-06T05:23:53.941Z,1011.05
2017-11-06T05:25:06.555Z,1011.06
2017-11-06T05:26:19.133Z,1011.08
2017-11-06T05:27:32.005Z,1011.11
2017-11-06T05:28:44.617Z,1011.09
2017-11-06T05:29:57.262Z,1011.14
2017-11-06T05:31:09.880Z,1011.16
2017-11-06T05:32:22.175Z,1011.19
2017-11-06T05:33:34.462Z,1011.23
2017-11-06T05:34:47.095Z,1011.23
2017-11-06T05:35:59.728Z,1011.26
2017-11-06T05:37:12.343Z,1011.27
2017-11-06T05:38:24.553Z,1011.28
2017-11-06T05:39:37.179Z,1011.31
2017-11-06T05:40:49.805Z,1011.29
2017-11-06T05:42:02.077Z,1011.35
2017-11-06T05:43:14.374Z,1011.39
2017-11-06T05:44:26.639Z,1011.4
2017-11-06T05:45:38.612Z,1011.44
2017-11-06T05:46:50.929Z,1011.46
2017-11-06T05:48:03.567Z,1011.53
2017-11-06T05:49:15.540Z,1011.56
2017-11-06T05:50:27.802Z,1011.57
2017-11-06T05:51:40.089Z,1011.62
2017-11-06T05:52:52.683Z,1011.66
2017-11-06T05:54:04.963Z,1011.64
2017-11-06T05:55:17.245Z,1011.65
2017-11-06T05:56:29.868Z,1011.65
2017-11-06T05:57:42.516Z,1011.66
2017-11-06T05:58:55.155Z,1011.71
2017-11-06T06:00:07.441Z,1011.76
2017-11-06T06:01:20.056Z,1011.74
2017-11-06T06:02:32.368Z,1011.76
2017-11-06T06:03:44.998Z,1011.77
2017-11-06T06:04:57.620Z,1011.8
2017-11-06T06:06:09.889Z,1011.79
2017-11-06T06:07:21.837Z,1011.87
2017-11-06T06:08:34.107Z,1011.85
2017-11-06T06:09:46.729Z,1011.86
2017-11-06T06:10:59.317Z,1011.84
2017-11-06T06:12:11.296Z,1011.82
2017-11-06T06:13:23.912Z,1011.87
2017-11-06T06:14:36.181Z,1011.92
2017-11-06T06:15:48.794Z,1011.94
2017-11-06T06:17:01.412Z,1011.95
2017-11-06T06:18:14.024Z,1011.95
2017-11-06T06:19:26.006Z,1011.96
2017-11-06T06:20:38.608Z,1011.97
2017-11-06T06:21:50.562Z,1011.98
2017-11-06T06:23:03.179Z,1011.99
2017-11-06T06:24:15.167Z,1012.03
2017-11-06T06:25:27.445Z,1012.08
2017-11-06T06:26:40.092Z,1012.11
2017-11-06T06:27:52.714Z,1012.09
2017-11-06T06:29:05.349Z,1012.18
2017-11-06T06:30:17.607Z,1012.19
2017-11-06T06:31:30.270Z,1012.18
2017-11-06T06:32:42.864Z,1012.21
2017-11-06T06:33:54.790Z,1012.22
2017-11-06T06:35:07.409Z,1012.25
2017-11-06T06:36:19.057Z,1012.33
2017-11-06T06:37:31.677Z,1012.27
2017-11-06T06:38:43.335Z,1012.34
2017-11-06T06:39:55.917Z,1012.39
2017-11-06T06:41:08.562Z,1012.41
2017-11-06T06:42:21.156Z,1012.46
2017-11-06T06:43:33.352Z,1012.46
2017-11-06T06:44:45.974Z,1012.52
2017-11-06T06:45:58.266Z,1012.55
2017-11-06T06:47:10.866Z,1012.59
2017-11-06T06:48:23.161Z,1012.57
2017-11-06T06:49:35.431Z,1012.61
2017-11-06T06:50:48.041Z,1012.64
2017-11-06T06:51:59.678Z,1012.62
2017-11-06T06:53:11.944Z,1012.61
2017-11-06T06:54:24.593Z,1012.6
2017-11-06T06:55:37.223Z,1012.64
2017-11-06T06:56:49.506Z,1012.71
2017-11-06T06:58:02.115Z,1012.73
2017-11-06T06:59:14.393Z,1012.77
2017-11-06T07:00:26.670Z,1012.84
2017-11-06T07:01:38.939Z,1012.83
2017-11-06T07:02:51.248Z,1012.87
2017-11-06T07:04:03.851Z,1012.87
2017-11-06T07:05:16.698Z,1012.92
2017-11-06T07:06:29.310Z,1012.89
2017-11-06T07:07:41.589Z,1012.95
2017-11-06T07:08:53.854Z,1012.95
2017-11-06T07:10:06.149Z,1012.97
2017-11-06T07:11:18.754Z,1012.98
2017-11-06T07:12:31.376Z,1013.03
2017-11-06T07:13:43.995Z,1013.04
2017-11-06T07:14:56.289Z,1013.09
2017-11-06T07:16:08.592Z,1013.11
2017-11-06T07:17:21.206Z,1013.15
2017-11-06T07:18:33.500Z,1013.17
2017-11-06T07:19:45.769Z,1013.19
2017-11-06T07:20:58.341Z,1013.27
2017-11-06T07:22:10.633Z,1013.29
2017-11-06T07:23:22.908Z,1013.3
2017-11-06T07:24:34.881Z,1013.32
2017-11-06T07:25:47.478Z,1013.34
2017-11-06T07:27:00.348Z,1013.35
2017-11-06T07:28:12.617Z,1013.34
2017-11-06T07:29:25.257Z,1013.38
2017-11-06T07:30:37.859Z,1013.38
2017-11-06T07:31:50.171Z,1013.4
2017-11-06T07:33:02.467Z,1013.39
2017-11-06T07:34:15.117Z,1013.35
2017-11-06T07:35:27.763Z,1013.41
2017-11-06T07:36:40.054Z,1013.43
2017-11-06T07:37:52.347Z,1013.44
2017-11-06T07:39:04.624Z,1013.45
2017-11-06T07:40:16.575Z,1013.49
2017-11-06T07:41:28.895Z,1013.54
2017-11-06T07:42:41.512Z,1013.56
2017-11-06T07:43:54.111Z,1013.58
2017-11-06T07:45:06.436Z,1013.64
2017-11-06T07:46:19.049Z,1013.58
2017-11-06T07:47:31.323Z,1013.64
2017-11-06T07:48:43.922Z,1013.67
2017-11-06T07:49:56.553Z,1013.73
2017-11-06T07:51:08.184Z,1013.74
2017-11-06T07:52:20.782Z,1013.79
2017-11-06T07:53:33.077Z,1013.76
2017-11-06T07:54:45.061Z,1013.81
2017-11-06T07:55:57.359Z,1013.81
2017-11-06T07:57:10.011Z,1013.81
2017-11-06T07:58:22.612Z,1013.87
2017-11-06T07:59:34.272Z,1013.93
2017-11-06T08:00:46.875Z,1013.93
2017-11-06T08:01:59.473Z,1013.96
2017-11-06T08:03:11.480Z,1013.96
2017-11-06T08:04:23.768Z,1013.95
2017-11-06T08:05:35.729Z,1013.93
2017-11-06T08:06:48.344Z,1013.91
2017-11-06T08:08:00.641Z,1013.95
2017-11-06T08:09:12.960Z,1013.99
2017-11-06T08:10:25.266Z,1014.01
2017-11-06T08:11:37.554Z,1014.04
2017-11-06T08:12:50.155Z,1014.02
2017-11-06T08:14:02.752Z,1014.08
2017-11-06T08:15:15.048Z,1014.07
2017-11-06T08:16:26.989Z,1014.12
2017-11-06T08:17:39.332Z,1014.13
2017-11-06T08:18:50.977Z,1014.16
2017-11-06T08:20:03.605Z,1014.2
2017-11-06T08:21:15.877Z,1014.2
2017-11-06T08:22:28.172Z,1014.2
2017-11-06T08:23:40.786Z,1014.18
2017-11-06T08:24:53.438Z,1014.25
2017-11-06T08:26:05.386Z,1014.22
2017-11-06T08:27:18.018Z,1014.28
2017-11-06T08:28:30.654Z,1014.26
2017-11-06T08:29:42.943Z,1014.33
2017-11-06T08:30:54.893Z,1014.35
2017-11-06T08:32:06.865Z,1014.32
2017-11-06T08:33:19.497Z,1014.32
2017-11-06T08:34:32.101Z,1014.35
2017-11-06T08:35:44.719Z,1014.4
2017-11-06T08:36:57.318Z,1014.4
2017-11-06T08:38:09.304Z,1014.45
2017-11-06T08:39:21.590Z,1014.49
2017-11-06T08:40:34.182Z,1014.5
2017-11-06T08:41:46.470Z,1014.55
2017-11-06T08:42:59.101Z,1014.56
2017-11-06T08:44:11.731Z,1014.55
2017-11-06T08:45:23.715Z,1014.53
2017-11-06T08:46:35.683Z,1014.55
2017-11-06T08:47:48.288Z,1014.56
2017-11-06T08:49:00.902Z,1014.6
2017-11-06T08:50:12.890Z,1014.64
2017-11-06T08:51:25.493Z,1014.69
2017-11-06T08:52:38.084Z,1014.76
2017-11-06T08:53:50.685Z,1014.77
2017-11-06T08:55:02.311Z,1014.82
2017-11-06T08:56:14.925Z,1014.81
2017-11-06T08:57:27.534Z,1014.78
2017-11-06T08:58:39.816Z,1014.78
2017-11-06T08:59:52.112Z,1014.85
2017-11-06T09:01:04.057Z,1014.9
2017-11-06T09:02:16.092Z,1014.93
2017-11-06T09:03:28.738Z,1014.98
2017-11-06T09:04:41.337Z,1014.98
2017-11-06T09:05:53.940Z,1014.99
2017-11-06T09:07:05.888Z,1014.94
2017-11-06T09:08:17.862Z,1014.98
2017-11-06T09:09:30.154Z,1014.96
2017-11-06T09:10:42.437Z,1014.93
2017-11-06T09:11:54.724Z,1014.91
2017-11-06T09:13:07.031Z,1014.89
2017-11-06T09:14:19.323Z,1014.89
2017-11-06T09:15:31.947Z,1014.9
2017-11-06T09:16:44.554Z,1015.01
2017-11-06T09:17:56.837Z,1014.99
2017-11-06T09:19:09.442Z,1015.07
2017-11-06T09:20:21.763Z,1015.15
2017-11-06T09:21:33.749Z,1015.2
2017-11-06T09:22:46.353Z,1015.17
2017-11-06T09:23:58.941Z,1015.18
2017-11-06T09:25:11.543Z,1015.21
2017-11-06T09:26:23.813Z,1015.24
2017-11-06T09:27:36.105Z,1015.24
2017-11-06T09:28:48.733Z,1015.21
2017-11-06T09:30:01.007Z,1015.26
2017-11-06T09:31:12.638Z,1015.3
2017-11-06T09:32:25.244Z,1015.27
2017-11-06T09:33:37.236Z,1015.32
2017-11-06T09:34:49.840Z,1015.27
2017-11-06T09:36:01.803Z,1015.31
2017-11-06T09:37:14.400Z,1015.3
2017-11-06T09:38:27.031Z,1015.33
2017-11-06T09:39:39.322Z,1015.34
2017-11-06T09:40:51.957Z,1015.33
2017-11-06T09:42:04.230Z,1015.33
2017-11-06T09:43:16.852Z,1015.33
2017-11-06T09:44:29.426Z,1015.31
2017-11-06T09:45:41.740Z,1015.32
2017-11-06T09:46:54.385Z,1015.3
2017-11-06T09:48:06.661Z,1015.31
2017-11-06T09:49:18.933Z,1015.36
2017-11-06T09:50:30.904Z,1015.36
2017-11-06T09:51:42.888Z,1015.32
2017-11-06T09:52:54.841Z,1015.36
2017-11-06T09:54:07.112Z,1015.35
2017-11-06T09:55:19.425Z,1015.37
2017-11-06T09:56:32.022Z,1015.35
2017-11-06T09:57:44.627Z,1015.33
2017-11-06T09:58:57.499Z,1015.41
2017-11-06T10:00:09.766Z,1015.4
2017-11-06T10:01:22.064Z,1015.42
2017-11-06T10:02:34.353Z,1015.38
2017-11-06T10:03:46.604Z,1015.44
2017-11-06T10:04:58.883Z,1015.43
2017-11-06T10:06:11.186Z,1015.48
2017-11-06T10:07:23.487Z,1015.46
2017-11-06T10:08:36.105Z,1015.43
2017-11-06T10:09:48.410Z,1015.45
2017-11-06T10:11:01.005Z,1015.46
2017-11-06T10:12:12.643Z,1015.53
2017-11-06T10:13:25.246Z,1015.55
2017-11-06T10:14:37.838Z,1015.56
2017-11-06T10:15:50.465Z,1015.54
2017-11-06T10:17:02.783Z,1015.55
2017-11-06T10:18:15.396Z,1015.57
2017-11-06T10:19:28.037Z,1015.54
2017-11-06T10:20:40.322Z,1015.56
2017-11-06T10:21:52.940Z,1015.52
2017-11-06T10:23:04.925Z,1015.51
2017-11-06T10:24:17.228Z,1015.56
2017-11-06T10:25:29.803Z,1015.56
2017-11-06T10:26:42.094Z,1015.51
2017-11-06T10:27:54.691Z,1015.47
2017-11-06T10:29:06.964Z,1015.48
2017-11-06T10:30:19.586Z,1015.41
2017-11-06T10:31:31.898Z,1015.39
2017-11-06T10:32:44.547Z,1015.37
2017-11-06T10:33:57.185Z,1015.31
2017-11-06T10:35:09.816Z,1015.34
2017-11-06T10:36:21.780Z,1015.32
2017-11-06T10:37:34.076Z,1015.36
2017-11-06T10:38:46.694Z,1015.35
2017-11-06T10:39:58.989Z,1015.4
2017-11-06T10:41:11.270Z,1015.39
2017-11-06T10:42:23.245Z,1015.41
2017-11-06T10:43:35.885Z,1015.43
2017-11-06T10:44:47.850Z,1015.44
2017-11-06T10:46:00.155Z,1015.43
2017-11-06T10:47:12.445Z,1015.44
2017-11-06T10:48:25.058Z,1015.45
2017-11-06T10:49:37.662Z,1015.46
2017-11-06T10:50:49.949Z,1015.43
2017-11-06T10:52:01.899Z,1015.47
2017-11-06T10:53:14.177Z,1015.5
2017-11-06T10:54:26.773Z,1015.53
2017-11-06T10:55:39.398Z,1015.5
2017-11-06T10:56:51.717Z,1015.47
2017-11-06T10:58:04.002Z,1015.5
2017-11-06T10:59:16.283Z,1015.54
2017-11-06T11:00:28.615Z,1015.54
2017-11-06T11:01:41.235Z,1015.56
2017-11-06T11:02:52.864Z,1015.55
2017-11-06T11:04:05.477Z,1015.54
2017-11-06T11:05:18.084Z,1015.52
2017-11-06T11:06:30.704Z,1015.53
2017-11-06T11:07:43.001Z,1015.5
2017-11-06T11:08:55.635Z,1015.49
2017-11-06T11:10:07.934Z,1015.5
2017-11-06T11:11:19.901Z,1015.51
2017-11-06T11:12:32.531Z,1015.5
2017-11-06T11:13:44.842Z,1015.49
2017-11-06T11:14:57.463Z,1015.55
2017-11-06T11:16:10.083Z,1015.57
2017-11-06T11:17:22.388Z,1015.55
2017-11-06T11:18:34.683Z,1015.58
2017-11-06T11:19:47.333Z,1015.61
2017-11-06T11:20:59.666Z,1015.62
2017-11-06T11:22:11.961Z,1015.61
2017-11-06T11:23:24.565Z,1015.67
2017-11-06T11:24:37.136Z,1015.67
2017-11-06T11:25:49.127Z,1015.68
2017-11-06T11:27:01.443Z,1015.69
2017-11-06T11:28:13.726Z,1015.71
2017-11-06T11:29:25.713Z,1015.76
2017-11-06T11:30:38.335Z,1015.79
2017-11-06T11:31:50.630Z,1015.85
2017-11-06T11:33:03.272Z,1015.87
2017-11-06T11:34:15.231Z,1015.91
2017-11-06T11:35:27.521Z,1015.89
2017-11-06T11:36:39.813Z,1015.87
2017-11-06T11:37:52.412Z,1015.88
2017-11-06T11:39:05.013Z,1015.91
2017-11-06T11:40:17.625Z,1015.94
2017-11-06T11:41:29.599Z,1015.94
2017-11-06T11:42:41.896Z,1015.94
2017-11-06T11:43:54.207Z,1015.95
2017-11-06T11:45:06.788Z,1015.96
2017-11-06T11:46:19.057Z,1015.96
2017-11-06T11:47:31.332Z,1015.92
2017-11-06T11:48:43.298Z,1015.93
2017-11-06T11:49:55.568Z,1015.96
2017-11-06T11:51:08.173Z,1015.92
2017-11-06T11:52:20.465Z,1015.92
2017-11-06T11:53:33.110Z,1015.88
2017-11-06T11:54:45.409Z,1015.94
2017-11-06T11:55:58.026Z,1015.91
2017-11-06T11:57:09.996Z,1015.93
2017-11-06T11:58:22.192Z,1015.96
2017-11-06T11:59:34.463Z,1016
2017-11-06T12:00:47.055Z,1015.92
2017-11-06T12:01:59.024Z,1015.98
2017-11-06T12:03:11.673Z,1015.93
2017-11-06T12:04:23.659Z,1015.94
2017-11-06T12:05:36.255Z,1015.89
2017-11-06T12:06:48.575Z,1015.93
2017-11-06T12:08:00.528Z,1015.93
2017-11-06T12:09:13.144Z,1015.96
2017-11-06T12:10:25.467Z,1015.91
2017-11-06T12:11:37.444Z,1015.95
2017-11-06T12:12:50.057Z,1015.94
2017-11-06T12:14:02.703Z,1015.94
2017-11-06T12:15:15.023Z,1015.92
2017-11-06T12:16:27.643Z,1015.93
2017-11-06T12:17:39.919Z,1015.98
2017-11-06T12:18:52.217Z,1016.02
2017-11-06T12:20:04.514Z,1016.08
2017-11-06T12:21:17.130Z,1016.1
2017-11-06T12:22:29.401Z,1016.08
2017-11-06T12:23:41.352Z,1016.1
2017-11-06T12:24:53.969Z,1016.12
2017-11-06T12:26:06.256Z,1016.15
2017-11-06T12:27:18.865Z,1016.17
2017-11-06T12:28:31.483Z,1016.19
2017-11-06T12:29:43.771Z,1016.2
2017-11-06T12:30:56.413Z,1016.2
2017-11-06T12:32:08.395Z,1016.25
2017-11-06T12:33:20.966Z,1016.26
2017-11-06T12:34:33.237Z,1016.34
2017-11-06T12:35:45.849Z,1016.29
2017-11-06T12:36:58.170Z,1016.33
2017-11-06T12:38:10.472Z,1016.31
2017-11-06T12:39:23.096Z,1016.31
2017-11-06T12:40:35.407Z,1016.31
2017-11-06T12:41:48.034Z,1016.32
2017-11-06T12:43:00.331Z,1016.34
2017-11-06T12:44:12.622Z,1016.31
2017-11-06T12:45:25.223Z,1016.37
2017-11-06T12:46:37.185Z,1016.29
2017-11-06T12:47:49.785Z,1016.26
2017-11-06T12:49:02.374Z,1016.29
2017-11-06T12:50:14.979Z,1016.24
2017-11-06T12:51:27.276Z,1016.26
2017-11-06T12:52:39.561Z,1016.26
2017-11-06T12:53:51.863Z,1016.22
2017-11-06T12:55:04.152Z,1016.28
2017-11-06T12:56:16.797Z,1016.26
2017-11-06T12:57:29.399Z,1016.26
2017-11-06T12:58:41.724Z,1016.29
2017-11-06T12:59:54.342Z,1016.32
2017-11-06T13:01:06.943Z,1016.3
2017-11-06T13:02:19.542Z,1016.32
2017-11-06T13:03:31.831Z,1016.33
2017-11-06T13:04:43.803Z,1016.36
2017-11-06T13:05:56.096Z,1016.36
2017-11-06T13:07:08.069Z,1016.36
2017-11-06T13:08:20.688Z,1016.35
2017-11-06T13:09:32.972Z,1016.38
2017-11-06T13:10:45.576Z,1016.36
2017-11-06T13:11:57.855Z,1016.34
2017-11-06T13:13:10.140Z,1016.34
2017-11-06T13:14:22.784Z,1016.35
2017-11-06T13:15:35.081Z,1016.42
2017-11-06T13:16:47.722Z,1016.44
2017-11-06T13:17:59.693Z,1016.4
2017-11-06T13:19:12.000Z,1016.44
2017-11-06T13:20:24.621Z,1016.42
2017-11-06T13:21:36.589Z,1016.48
2017-11-06T13:22:49.204Z,1016.47
2017-11-06T13:24:01.830Z,1016.47
2017-11-06T13:25:14.082Z,1016.57
2017-11-06T13:26:26.073Z,1016.56
2017-11-06T13:27:38.672Z,1016.54
2017-11-06T13:28:50.992Z,1016.52
2017-11-06T13:30:02.938Z,1016.57
2017-11-06T13:31:14.904Z,1016.54
2017-11-06T13:32:27.495Z,1016.58
2017-11-06T13:33:39.143Z,1016.61
2017-11-06T13:34:51.135Z,1016.66
2017-11-06T13:36:03.415Z,1016.64
2017-11-06T13:37:15.710Z,1016.65
2017-11-06T13:38:27.955Z,1016.68
2017-11-06T13:39:40.526Z,1016.68
2017-11-06T13:40:52.793Z,1016.71
2017-11-06T13:42:04.746Z,1016.72
2017-11-06T13:43:17.380Z,1016.73
2017-11-06T13:44:29.679Z,1016.73
2017-11-06T13:45:42.279Z,1016.73
2017-11-06T13:46:54.576Z,1016.73
2017-11-06T13:48:06.591Z,1016.78
2017-11-06T13:49:18.584Z,1016.81
2017-11-06T13:50:30.915Z,1016.84
2017-11-06T13:51:43.529Z,1016.84
2017-11-06T13:52:56.128Z,1016.88
2017-11-06T13:54:08.750Z,1016.91
2017-11-06T13:55:21.033Z,1016.92
2017-11-06T13:56:33.659Z,1016.94
2017-11-06T13:57:45.966Z,1017
2017-11-06T13:58:58.277Z,1016.98
2017-11-06T14:00:10.918Z,1017.06
2017-11-06T14:01:23.562Z,1017.11
2017-11-06T14:02:35.839Z,1017.13
2017-11-06T14:03:48.436Z,1017.15
2017-11-06T14:05:01.026Z,1017.17
2017-11-06T14:06:13.627Z,1017.17
2017-11-06T14:07:26.230Z,1017.2
2017-11-06T14:08:38.542Z,1017.22
2017-11-06T14:09:51.169Z,1017.22
2017-11-06T14:11:03.462Z,1017.24
2017-11-06T14:12:15.455Z,1017.28
2017-11-06T14:13:27.767Z,1017.28
2017-11-06T14:14:40.373Z,1017.3
2017-11-06T14:15:52.695Z,1017.33
2017-11-06T14:17:05.311Z,1017.35
2017-11-06T14:18:17.265Z,1017.35
2017-11-06T14:19:29.870Z,1017.37
2017-11-06T14:20:41.844Z,1017.38
2017-11-06T14:21:54.140Z,1017.4
2017-11-06T14:23:06.421Z,1017.4
2017-11-06T14:24:19.033Z,1017.39
2017-11-06T14:25:30.682Z,1017.42
2017-11-06T14:26:43.284Z,1017.38
2017-11-06T14:27:55.897Z,1017.41
2017-11-06T14:29:07.880Z,1017.37
2017-11-06T14:30:20.463Z,1017.43
2017-11-06T14:31:32.438Z,1017.43
2017-11-06T14:32:45.035Z,1017.45
2017-11-06T14:33:56.980Z,1017.44
2017-11-06T14:35:08.949Z,1017.45
2017-11-06T14:36:21.548Z,1017.43
2017-11-06T14:37:33.523Z,1017.46
2017-11-06T14:38:46.134Z,1017.45